Saturday, October 25, 2014
21:14 UTC
  |  Log In   |  Register Free
Airport Search:

Ormond Beach Municipal Airport
(KOMN)

FAA data valid effective September 18, 2014 - November 13, 2014 (unless otherwise noted).

 
 
 
 
 
 
 
 
 
 
 
 
 
 

Current Aviation Weather for Ormond Beach Municipal Airport (KOMN)

The most recent METAR observation for KOMN was updated at: 2012
METAR Summary (Translated METAR)
KOMN
251950Z 03011G16KT 10SM SCT040 24/14 A2995
KDAB
252053Z 04011KT 10SM FEW045 24/14 A2995 RMK AO2 SLP142 T02440144 55006
(7.8 nm SE from KOMN)
KXFL
251550Z 34006KT 7SM CLR 24/13 A3001
(11.1 nm NW from KOMN)
TAF Summary (Translated TAF)
KDAB
(7.8 nm SE from KOMN)
251720Z 2518/2618 32007KT P6SM FEW040 FM252000 01008KT P6SM FEW050 FM260000 00000KT P6SM SKC FM261500 01006KT P6SM FEW040
  Airport Weather Conditions for KOMN

 Current Weather at OMN
75° F
Partly Cloudy
Northeast winds at 12.7 mph
OMN NOAA Radar

Pressure: 29.95 in
Humidity: 54%
Wind: from the Northeast at 12.7 gusting to 18.4 MPH (11 gusting to 16 KT)
Dew Point: 57.2°F
Visibility: 10.00 mi


Airport Weather Forecast for KOMN

Translated METAR and TAF for KOMN
Translated METAR for KOMN (2109 UTC 25 October 2014)
found at http://aviationweather.gov/adds/metars/
 
METAR text: KOMN 252050Z 01010KT 10SM SKC 23/15 A2996
Conditions at: KOMN (ORMOND BEACH VOR, FL, US) observed 2050 UTC 25 October 2014
Temperature: 23.0°C (73°F)
Dewpoint: 15.0°C (59°F) [RH = 61%]
Pressure (altimeter): 29.96 inches Hg (1014.6 mb)
Winds: from the N (10 degrees) at 12 MPH (10 knots; 5.2 m/s)
Visibility: 10 or more miles (16+ km)
Ceiling: at least 12,000 feet AGL
Clouds: clear skies
Weather: no significant weather observed at this time
Translated TAF for KOMN

There is no translated TAF available for this airport

Find All Airport Services Find A Hotel Find A Rental Car Find A Golf Course Find A Restaurant $100 Hamburger



FBO's on the Field
FBO Company Facility Photos Services Transportation Aviation Fuel Prices: Prices include tax
Catering Weather Repair Courtesy Rental Type 100LL JetA JetA+ MOGAS 8087
 
Sunrise Aviation

Currently rated 1.9 by 3 people
FS:Shell
Last Updated: Sep-26
Login to update fuel prices
SS:
Contact Sunrise AviationMore FBO Information
 
Add another FBO Facility Photos Catering Weather Repair Courtesy Rental Type 100LL JetA JetA+ MOGAS 8087
Services Transportation Aviation Fuel Prices: Prices include tax


model-print
model-print
model-print
model-print